Time;durP1;ratioP1;P1;durP2;ratioP2;P2;SDS_P1;SDS_P2;PMS_P1;PMS_P2;Temp;Humidity;BMP_temperature;BMP_pressure;BME280_temperature;BME280_humidity;BME280_pressure;Samples;Min_cycle;Max_cycle;Signal;HPM_P1;HPM_P2
2021/04/12 00:02:45;;;;;;;8.25;4.47;;;;;;;12.97;58.42;100481.79;1635136;85;25898;-84
2021/04/12 00:05:52;;;;;;;7.35;4.50;;;;;;;12.95;58.24;100475.89;1648603;85;25772;-83
2021/04/12 00:08:24;;;;;;;11.93;5.67;;;;;;;12.92;58.39;100474.44;1646384;84;25878;-84
2021/04/12 00:11:23;;;;;;;6.40;4.47;;;;;;;12.88;58.29;100472.67;1649592;85;25914;-84
2021/04/12 00:14:06;;;;;;;10.03;4.75;;;;;;;12.91;58.31;100472.82;1675571;82;25847;-84
2021/04/12 00:17:04;;;;;;;11.22;5.03;;;;;;;12.91;58.27;100471.51;1701344;82;25927;-84
2021/04/12 00:19:56;;;;;;;8.48;4.58;;;;;;;12.90;58.31;100468.55;1688350;82;25361;-84
2021/04/12 00:22:36;;;;;;;8.38;4.70;;;;;;;12.88;58.30;100471.36;1645528;84;25821;-84
2021/04/12 00:25:10;;;;;;;8.10;4.67;;;;;;;12.89;58.37;100464.30;1645962;84;25815;-84
2021/04/12 00:27:42;;;;;;;10.03;4.85;;;;;;;12.90;58.30;100464.61;1646956;84;25795;-84
2021/04/12 00:30:46;;;;;;;7.50;4.78;;;;;;;12.89;58.28;100461.18;1644160;84;25867;-84
2021/04/12 00:33:20;;;;;;;7.15;4.67;;;;;;;12.87;58.30;100468.41;1644710;84;25805;-85
2021/04/12 00:35:55;;;;;;;9.88;5.15;;;;;;;12.85;58.29;100462.55;1643650;84;25846;-83
2021/04/12 00:38:27;;;;;;;6.62;4.22;;;;;;;12.86;58.35;100462.04;1645062;84;25880;-84
2021/04/12 00:41:49;;;;;;;7.92;4.72;;;;;;;12.82;58.40;100460.28;1644270;84;25903;-83
2021/04/12 00:44:27;;;;;;;9.03;5.42;;;;;;;12.77;58.38;100457.37;1607804;87;25731;-83
2021/04/12 00:47:13;;;;;;;8.05;4.72;;;;;;;12.80;58.38;100453.58;1584723;87;26574;-84
2021/04/12 00:49:53;;;;;;;10.82;4.50;;;;;;;12.80;58.32;100455.70;1604570;87;25946;-83
2021/04/12 00:53:03;;;;;;;10.03;4.42;;;;;;;12.78;58.31;100451.12;1605508;87;25827;-83
2021/04/12 00:55:38;;;;;;;6.12;4.03;;;;;;;12.75;58.30;100444.11;1607555;87;32628;-84
2021/04/12 00:58:31;;;;;;;7.90;4.45;;;;;;;12.73;58.30;100442.15;1641878;83;25848;-84
2021/04/12 01:01:15;;;;;;;7.60;4.55;;;;;;;12.74;58.34;100444.61;1692030;83;25732;-83
2021/04/12 01:04:06;;;;;;;8.13;4.22;;;;;;;12.69;58.32;100442.20;1692356;83;26675;-84
2021/04/12 01:07:01;;;;;;;11.63;4.45;;;;;;;12.65;58.37;100441.72;1688597;83;25712;-83
2021/04/12 01:10:03;;;;;;;8.03;4.55;;;;;;;12.63;58.33;100439.76;1691026;83;25797;-84
2021/04/12 01:13:00;;;;;;;6.45;3.80;;;;;;;12.64;58.31;100444.84;1688928;83;25870;-83
2021/04/12 01:16:03;;;;;;;9.93;5.15;;;;;;;12.63;58.28;100442.38;1691222;83;25871;-83
2021/04/12 01:19:25;;;;;;;8.40;4.05;;;;;;;12.61;58.30;100439.14;1690133;83;25820;-84
2021/04/12 01:22:05;;;;;;;12.13;4.85;;;;;;;12.59;58.33;100437.19;1689227;83;25391;-84
2021/04/12 01:25:04;;;;;;;14.25;4.45;;;;;;;12.60;58.33;100437.49;1686438;83;25809;-84
2021/04/12 01:28:24;;;;;;;7.65;4.17;;;;;;;12.63;58.32;100441.06;1688109;83;25780;-84
2021/04/12 01:31:29;;;;;;;7.53;3.98;;;;;;;12.65;58.30;100443.84;1692209;83;25785;-84
2021/04/12 01:34:33;;;;;;;6.47;3.92;;;;;;;12.63;58.29;100434.04;1689623;83;25720;-83
2021/04/12 01:37:45;;;;;;;8.10;3.80;;;;;;;12.61;58.32;100433.39;1668298;84;26590;-83
2021/04/12 01:40:25;;;;;;;8.80;3.98;;;;;;;12.62;58.31;100431.58;1666181;84;25960;-83
2021/04/12 01:43:37;;;;;;;6.70;4.12;;;;;;;12.59;58.26;100423.57;1667243;84;25803;-83
2021/04/12 01:46:22;;;;;;;9.25;4.05;;;;;;;12.60;58.27;100429.63;1665997;84;25877;-83
2021/04/12 01:49:03;;;;;;;9.68;4.00;;;;;;;12.59;58.25;100431.44;1668554;84;26546;-83
2021/04/12 01:52:02;;;;;;;;;;;;;;;12.59;58.20;100435.38;1668505;84;26520;-83
2021/04/12 01:55:11;;;;;;;9.73;4.85;;;;;;;12.60;58.24;100423.07;1666151;84;25821;-83
2021/04/12 01:58:11;;;;;;;11.22;4.22;;;;;;;12.57;58.17;100427.36;1665873;84;25877;-84
2021/04/12 02:00:57;;;;;;;8.08;4.58;;;;;;;12.54;58.14;100423.28;1668504;84;25912;-82
2021/04/12 02:03:48;;;;;;;8.85;4.37;;;;;;;12.49;58.12;100421.68;1666246;84;25841;-83
2021/04/12 02:06:31;;;;;;;8.43;4.28;;;;;;;12.47;58.07;100424.99;1665785;84;25346;-82
2021/04/12 02:09:26;;;;;;;10.15;4.22;;;;;;;12.46;58.07;100423.34;1667839;84;25506;-82
2021/04/12 02:12:25;;;;;;;7.67;3.85;;;;;;;12.45;58.05;100417.80;1668739;84;25977;-82
2021/04/12 02:15:14;;;;;;;8.43;3.55;;;;;;;12.42;58.03;100417.65;1691008;83;25691;-82
2021/04/12 02:17:51;;;;;;;11.53;4.40;;;;;;;12.39;58.04;100414.57;1690666;83;25784;-82
2021/04/12 02:20:41;;;;;;;6.67;4.08;;;;;;;12.34;57.96;100417.70;1689854;83;25610;-82
2021/04/12 02:23:31;;;;;;;8.83;4.03;;;;;;;12.25;58.37;100410.06;1689179;83;25800;-81
2021/04/12 02:26:14;;;;;;;6.40;4.22;;;;;;;12.25;58.37;100410.06;1692687;82;25335;-83
2021/04/12 02:29:15;;;;;;;9.13;4.33;;;;;;;12.19;58.08;100414.20;1686070;83;25361;-82
2021/04/12 02:32:08;;;;;;;8.80;4.47;;;;;;;12.13;58.12;100410.97;1691261;83;25642;-83
2021/04/12 02:35:02;;;;;;;8.03;4.12;;;;;;;12.11;58.24;100418.18;1700099;83;25819;-82
2021/04/12 02:38:04;;;;;;;8.15;4.20;;;;;;;12.09;58.24;100413.13;1700157;83;25683;-82
2021/04/12 02:41:11;;;;;;;10.65;4.65;;;;;;;12.06;58.27;100416.57;1698447;83;25837;-83
2021/04/12 02:44:08;;;;;;;10.95;5.08;;;;;;;12.01;58.28;100414.49;1696707;83;25440;-84
2021/04/12 02:47:11;;;;;;;15.30;4.90;;;;;;;11.98;58.37;100417.46;1695317;83;25839;-81
2021/04/12 02:50:10;;;;;;;7.37;4.28;;;;;;;11.95;58.43;100413.87;1700526;82;25369;-83
2021/04/12 02:52:56;;;;;;;12.23;4.42;;;;;;;11.92;58.47;100407.65;1699266;83;25918;-81
2021/04/12 02:55:55;;;;;;;9.38;4.42;;;;;;;11.89;58.53;100410.12;1699412;83;25903;-82
2021/04/12 02:58:42;;;;;;;9.20;4.47;;;;;;;11.88;58.57;100407.19;1693882;83;25786;-82
2021/04/12 03:01:30;;;;;;;10.40;4.12;;;;;;;11.87;58.63;100412.12;1696801;83;25967;-82
2021/04/12 03:04:22;;;;;;;9.88;5.33;;;;;;;11.85;58.66;100415.36;1698262;82;25823;-83
2021/04/12 03:07:08;;;;;;;12.93;6.40;;;;;;;11.85;58.73;100416.67;1700626;83;26289;-83
2021/04/12 03:10:16;;;;;;;10.48;5.35;;;;;;;11.83;58.69;100409.47;1701766;83;25906;-82
2021/04/12 03:13:07;;;;;;;7.83;4.92;;;;;;;11.79;58.69;100414.75;1690805;82;25324;-82
2021/04/12 03:15:42;;;;;;;7.75;4.62;;;;;;;11.75;58.81;100405.59;1689260;83;25696;-81
2021/04/12 03:18:36;;;;;;;9.38;4.53;;;;;;;11.73;58.83;100411.48;1692690;83;26106;-82
2021/04/12 03:21:37;;;;;;;10.75;4.75;;;;;;;11.69;58.90;100412.33;1689868;83;25680;-83
2021/04/12 03:24:17;;;;;;;9.40;4.78;;;;;;;11.68;58.96;100422.48;1689405;83;25734;-83
2021/04/12 03:26:53;;;;;;;;;;;;;;;11.69;58.97;100415.44;1688953;83;25814;-83
2021/04/12 03:29:42;;;;;;;10.03;4.55;;;;;;;11.69;59.05;100414.94;1687353;83;25830;-83
2021/04/12 03:32:20;;;;;;;9.38;4.85;;;;;;;11.68;59.03;100417.25;1690717;82;25367;-83
2021/04/12 03:35:16;;;;;;;8.43;4.58;;;;;;;11.69;59.11;100414.94;1689938;83;26521;-83
2021/04/12 03:38:25;;;;;;;7.95;4.40;;;;;;;11.67;59.11;100414.29;1689225;83;25453;-84
2021/04/12 03:41:15;;;;;;;5.78;3.77;;;;;;;11.70;59.19;100414.44;1689096;83;25724;-83
2021/04/12 03:44:03;;;;;;;8.28;4.17;;;;;;;11.70;59.17;100414.44;1691946;82;25706;-82
2021/04/12 03:46:55;;;;;;;8.78;4.47;;;;;;;11.69;59.19;100413.63;1688845;83;25382;-81
2021/04/12 03:49:50;;;;;;;6.83;4.00;;;;;;;11.65;59.21;100416.28;1691151;82;25986;-82
2021/04/12 03:52:48;;;;;;;9.08;4.65;;;;;;;11.66;59.25;100416.59;1692117;83;25342;-81
2021/04/12 03:56:04;;;;;;;10.98;4.28;;;;;;;11.67;59.29;100411.67;1601172;88;25838;-82
2021/04/12 03:58:55;;;;;;;12.93;4.72;;;;;;;11.66;59.28;100417.91;1569484;89;26085;-82
2021/04/12 04:01:39;;;;;;;8.50;4.37;;;;;;;11.66;59.38;100417.91;1562047;89;25493;-82
2021/04/12 04:04:47;;;;;;;9.58;4.42;;;;;;;11.65;59.36;100412.36;1566632;89;25409;-82
2021/04/12 04:07:46;;;;;;;12.75;4.35;;;;;;;11.62;59.37;100419.72;1566941;89;26052;-79
2021/04/12 04:10:38;;;;;;;7.00;4.15;;;;;;;11.60;59.48;100422.52;1568949;89;25405;-87
2021/04/12 04:13:37;;;;;;;6.97;4.12;;;;;;;11.59;59.50;100423.98;1566592;89;25855;-89
2021/04/12 04:16:29;;;;;;;9.65;4.33;;;;;;;11.56;59.52;100422.52;1567959;89;25891;-89
2021/04/12 04:19:18;;;;;;;10.88;4.37;;;;;;;11.53;59.60;100431.53;1566897;89;25974;-88
2021/04/12 04:22:18;;;;;;;10.45;4.30;;;;;;;11.52;59.68;100431.72;1568383;89;25626;-89
2021/04/12 04:25:17;;;;;;;8.83;4.20;;;;;;;11.54;59.73;100432.38;1568387;89;25403;-88
2021/04/12 04:28:14;;;;;;;11.10;4.55;;;;;;;11.50;59.74;100429.75;1566831;89;25925;-87
2021/04/12 04:31:26;;;;;;;14.60;4.60;;;;;;;11.49;59.81;100434.17;1566226;89;25904;-83
2021/04/12 04:34:15;;;;;;;10.40;4.55;;;;;;;11.49;59.85;100434.17;1690526;83;25783;-81
2021/04/12 04:37:13;;;;;;;11.40;4.28;;;;;;;11.44;59.91;100432.55;1691757;83;25265;-81
2021/04/12 04:40:01;;;;;;;14.33;4.55;;;;;;;11.42;60.02;100435.83;1689152;83;25739;-82
2021/04/12 04:42:41;;;;;;;13.90;4.72;;;;;;;11.43;60.07;100436.17;1692417;83;25793;-84
2021/04/12 04:45:22;;;;;;;13.55;4.47;;;;;;;11.42;60.13;100440.25;1692514;83;25872;-84
2021/04/12 04:48:24;;;;;;;10.10;5.08;;;;;;;11.41;60.17;100432.09;1582107;89;25849;-83
2021/04/12 04:51:21;;;;;;;9.68;4.50;;;;;;;11.39;60.24;100436.16;1583130;89;25972;-84
2021/04/12 04:54:16;;;;;;;12.82;4.80;;;;;;;11.40;60.40;100432.55;1579411;89;25827;-83
2021/04/12 04:56:57;;;;;;;12.93;4.22;;;;;;;11.39;60.43;100437.97;1581809;89;26126;-84
2021/04/12 05:00:18;;;;;;;8.43;5.03;;;;;;;11.38;60.52;100433.23;1580109;89;25401;-89
2021/04/12 05:03:12;;;;;;;10.82;5.15;;;;;;;11.37;60.53;100435.52;1581940;89;25803;-83
2021/04/12 05:06:17;;;;;;;10.05;4.97;;;;;;;11.38;60.65;100437.66;1582120;89;25439;-80
2021/04/12 05:09:21;;;;;;;6.85;4.17;;;;;;;11.36;60.69;100437.00;1582685;89;25877;-82
2021/04/12 05:12:30;;;;;;;12.37;5.20;;;;;;;11.32;60.73;100437.34;1583227;89;25821;-82
2021/04/12 05:15:22;;;;;;;12.70;5.33;;;;;;;11.34;60.84;100437.16;1582369;89;25801;-83
2021/04/12 05:18:45;;;;;;;10.78;4.50;;;;;;;11.36;60.89;100438.31;1583361;89;25923;-82
2021/04/12 05:21:33;;;;;;;10.15;4.70;;;;;;;11.37;60.94;100438.13;1582676;89;25532;-82
2021/04/12 05:24:56;;;;;;;10.45;5.45;;;;;;;11.37;60.94;100437.31;1591473;84;25375;-82
2021/04/12 05:28:00;;;;;;;10.32;5.12;;;;;;;11.38;61.07;100438.97;1690249;83;25782;-81
2021/04/12 05:30:56;;;;;;;10.43;5.53;;;;;;;11.40;61.12;100436.97;1691281;82;25697;-81
2021/04/12 05:33:43;;;;;;;14.75;5.45;;;;;;;11.39;61.14;100434.86;1692210;83;25723;-81
2021/04/12 05:36:32;;;;;;;8.88;4.87;;;;;;;11.38;61.21;100435.05;1692774;82;25793;-87
2021/04/12 05:39:29;;;;;;;11.12;5.35;;;;;;;11.39;61.33;100432.73;1687793;83;43344;-87
2021/04/12 05:42:28;;;;;;;16.57;5.50;;;;;;;11.42;61.45;100431.09;1625672;86;25759;-87
2021/04/12 05:45:12;;;;;;;15.70;5.85;;;;;;;11.49;61.59;100435.48;1600078;86;33318;-89
2021/04/12 05:48:25;;;;;;;12.53;4.70;;;;;;;11.58;61.73;100428.41;1592403;88;25398;-89
2021/04/12 05:51:32;;;;;;;10.45;4.70;;;;;;;11.70;61.80;100429.69;1588296;88;25868;-87
2021/04/12 05:54:12;;;;;;;14.28;4.95;;;;;;;11.88;61.88;100428.64;1583955;87;25680;-89
2021/04/12 05:57:03;;;;;;;13.22;5.03;;;;;;;12.07;61.86;100426.89;1582731;88;26560;-86
2021/04/12 05:59:54;;;;;;;11.20;4.83;;;;;;;12.19;61.73;100428.14;1572499;88;25877;-88
2021/04/12 06:03:02;;;;;;;7.83;4.70;;;;;;;12.25;61.43;100434.95;1576545;88;25387;-91
2021/04/12 06:05:48;;;;;;;12.30;5.25;;;;;;;12.23;61.22;100432.53;1572889;88;25898;-89
2021/04/12 06:08:34;;;;;;;11.88;5.37;;;;;;;12.25;61.33;100429.72;1544297;91;25566;-89
2021/04/12 06:11:29;;;;;;;10.38;5.17;;;;;;;12.30;61.27;100427.39;1543223;90;25763;-89
2021/04/12 06:14:26;;;;;;;10.10;4.92;;;;;;;12.32;61.16;100426.23;1544034;91;25385;-89
2021/04/12 06:17:10;;;;;;;11.68;5.28;;;;;;;12.33;61.03;100438.84;1550375;90;25384;-90
2021/04/12 06:19:59;;;;;;;14.15;5.05;;;;;;;12.30;61.10;100436.06;1548659;90;25375;-89
2021/04/12 06:22:49;;;;;;;9.90;5.50;;;;;;;12.30;61.11;100432.14;1549591;90;25883;-83
2021/04/12 06:25:54;;;;;;;12.30;5.75;;;;;;;12.31;61.10;100431.16;1520817;91;26539;-83
2021/04/12 06:29:02;;;;;;;12.05;5.00;;;;;;;12.41;61.17;100429.13;1555393;90;26114;-83
2021/04/12 06:31:56;;;;;;;11.85;5.05;;;;;;;12.51;61.18;100430.19;1552529;90;26116;-83
2021/04/12 06:34:56;;;;;;;13.65;5.75;;;;;;;12.55;61.09;100435.42;1558968;90;25401;-89
2021/04/12 06:37:39;;;;;;;13.88;5.70;;;;;;;12.62;61.06;100438.95;1554448;90;25490;-90
2021/04/12 06:40:45;;;;;;;13.60;5.12;;;;;;;12.72;61.00;100430.04;1557549;90;26527;-89
2021/04/12 06:43:40;;;;;;;8.45;5.40;;;;;;;12.82;60.96;100433.20;1560269;90;25350;-88
2021/04/12 06:47:02;;;;;;;11.38;5.28;;;;;;;12.93;60.85;100428.02;1633081;84;25839;-88
2021/04/12 06:50:07;;;;;;;9.70;5.35;;;;;;;13.06;60.65;100419.05;1655517;84;25949;-89
2021/04/12 06:52:41;;;;;;;9.75;5.65;;;;;;;13.23;60.52;100431.49;1657976;84;25431;-89
2021/04/12 06:55:24;;;;;;;12.78;5.80;;;;;;;13.38;60.19;100432.36;1657859;84;25747;-81
2021/04/12 06:58:34;;;;;;;14.00;6.33;;;;;;;13.50;60.10;100440.11;1655887;84;25598;-82
2021/04/12 07:01:51;;;;;;;15.72;5.58;;;;;;;13.61;59.92;100437.99;1598503;87;25883;-83
2021/04/12 07:04:59;;;;;;;12.53;5.40;;;;;;;13.74;59.52;100438.97;1597601;87;25827;-80
2021/04/12 07:08:13;;;;;;;9.90;6.15;;;;;;;13.85;59.22;100435.05;1600231;87;26529;-87
2021/04/12 07:11:09;;;;;;;10.18;6.20;;;;;;;13.96;59.09;100432.45;1600578;87;26327;-80
2021/04/12 07:13:49;;;;;;;7.50;4.75;;;;;;;14.06;58.82;100434.80;1601594;87;25935;-79
2021/04/12 07:16:54;;;;;;;8.48;5.62;;;;;;;14.15;58.69;100425.78;1608789;87;25878;-80
2021/04/12 07:19:57;;;;;;;14.15;5.12;;;;;;;14.26;58.49;100428.41;1604898;87;26727;-90
2021/04/12 07:22:41;;;;;;;8.88;5.15;;;;;;;14.35;57.88;100432.54;1605329;87;25796;-81
2021/04/12 07:25:22;;;;;;;12.82;5.33;;;;;;;14.46;57.86;100429.44;1609036;87;26426;-88
2021/04/12 07:28:11;;;;;;;;;;;;;;;14.55;57.51;100431.46;1610347;87;25877;-89
2021/04/12 07:31:16;;;;;;;11.00;5.83;;;;;;;14.63;57.29;100431.33;1609625;87;25869;-81
2021/04/12 07:34:31;;;;;;;10.30;5.53;;;;;;;14.68;57.13;100432.89;1614987;87;26588;-78
2021/04/12 07:37:19;;;;;;;9.70;5.33;;;;;;;14.74;57.01;100428.68;1616916;87;25779;-83
2021/04/12 07:40:26;;;;;;;14.20;5.75;;;;;;;14.82;56.82;100429.35;1618061;87;25743;-83
2021/04/12 07:43:22;;;;;;;10.45;5.97;;;;;;;14.91;56.83;100426.58;1615092;87;25448;-88
2021/04/12 07:46:19;;;;;;;10.03;5.37;;;;;;;15.02;56.69;100418.15;1632739;86;26016;-85
2021/04/12 07:49:31;;;;;;;12.78;5.67;;;;;;;15.09;56.33;100422.45;1635437;86;25408;-81
2021/04/12 07:52:37;;;;;;;9.53;5.90;;;;;;;15.18;56.04;100417.03;1636152;86;25777;-79
2021/04/12 07:55:38;;;;;;;11.50;5.25;;;;;;;15.27;56.00;100419.81;1674874;83;25859;-78
2021/04/12 07:58:44;;;;;;;8.70;5.10;;;;;;;15.40;55.80;100421.71;1671990;83;25725;-79
2021/04/12 08:01:50;;;;;;;10.43;5.00;;;;;;;15.51;55.69;100416.69;1704594;82;56011;-87
2021/04/12 08:04:50;;;;;;;8.65;5.05;;;;;;;15.59;54.99;100419.67;1722845;82;25280;-85
2021/04/12 08:08:02;;;;;;;12.50;4.80;;;;;;;15.67;54.65;100418.19;1718833;83;25357;-87
2021/04/12 08:11:11;;;;;;;10.63;5.40;;;;;;;15.75;54.17;100414.09;1722744;82;25586;-87
2021/04/12 08:14:20;;;;;;;9.50;5.35;;;;;;;15.77;53.56;100413.91;1711434;82;56142;-85
2021/04/12 08:17:21;;;;;;;8.13;4.77;;;;;;;15.83;53.78;100420.20;1677305;83;25797;-85
2021/04/12 08:20:26;;;;;;;9.20;4.80;;;;;;;15.95;53.62;100415.97;1675999;83;25813;-86
2021/04/12 08:23:29;;;;;;;12.53;5.40;;;;;;;16.02;51.28;100408.90;1676693;83;26333;-86
2021/04/12 08:26:39;;;;;;;9.70;4.97;;;;;;;16.01;53.14;100408.58;1676726;83;25631;-87
2021/04/12 08:29:41;;;;;;;10.28;5.20;;;;;;;16.15;52.71;100414.69;1676289;83;25460;-93
2021/04/12 08:32:50;;;;;;;9.58;5.30;;;;;;;16.21;52.54;100409.95;1676353;83;25380;-84
2021/04/12 08:35:33;;;;;;;9.75;4.85;;;;;;;16.31;52.57;100410.86;1676812;83;25885;-84
2021/04/12 08:38:48;;;;;;;13.83;5.10;;;;;;;16.42;52.44;100408.94;1597918;87;25859;-82
2021/04/12 08:41:45;;;;;;;9.55;4.87;;;;;;;16.50;52.10;100402.66;1613110;86;25756;-81
2021/04/12 08:44:51;;;;;;;11.03;4.83;;;;;;;16.63;52.07;100401.34;1611226;87;25730;-77
2021/04/12 08:47:55;;;;;;;10.40;5.08;;;;;;;16.72;51.36;100399.30;1593866;87;25915;-82
2021/04/12 08:50:29;;;;;;;12.93;4.45;;;;;;;16.73;51.33;100405.71;1597203;87;25759;-78
2021/04/12 08:53:24;;;;;;;9.68;5.20;;;;;;;16.85;51.13;100405.92;1522845;92;25838;-79
2021/04/12 08:56:07;;;;;;;11.05;5.10;;;;;;;16.90;50.68;100402.68;1521699;92;26774;-80
2021/04/12 08:59:10;;;;;;;11.05;5.03;;;;;;;16.98;51.04;100409.06;1521348;92;25840;-86
2021/04/12 09:01:58;;;;;;;7.42;4.42;;;;;;;17.07;50.78;100395.42;1521357;91;25696;-80
2021/04/12 09:04:42;;;;;;;7.92;4.67;;;;;;;17.21;50.60;100400.67;1522093;92;25681;-85
2021/04/12 09:07:25;;;;;;;8.90;4.20;;;;;;;17.29;49.84;100393.32;1522322;92;26101;-83
2021/04/12 09:10:14;;;;;;;11.50;4.55;;;;;;;17.30;49.43;100399.44;1522879;92;25759;-80
2021/04/12 09:13:07;;;;;;;7.37;4.72;;;;;;;17.34;49.25;100397.98;1522619;92;25872;-85
2021/04/12 09:15:45;;;;;;;12.75;5.08;;;;;;;17.37;48.81;100396.25;1565621;87;25440;-81
2021/04/12 09:18:31;;;;;;;9.75;4.80;;;;;;;17.42;48.71;100398.28;1612880;86;26477;-81
2021/04/12 09:21:32;;;;;;;11.12;4.83;;;;;;;17.42;48.70;100394.31;1604002;86;25894;-81
2021/04/12 09:24:38;;;;;;;8.98;4.33;;;;;;;17.44;48.54;100396.24;1575257;89;25880;-84
2021/04/12 09:27:42;;;;;;;8.63;4.20;;;;;;;17.46;47.62;100400.78;1575390;89;25423;-86
2021/04/12 09:30:50;;;;;;;13.13;5.05;;;;;;;17.46;47.73;100400.30;1584300;85;25541;-87
2021/04/12 09:33:45;;;;;;;11.22;5.80;;;;;;;17.53;47.65;100401.06;1636847;85;26017;-80
2021/04/12 09:36:40;;;;;;;8.75;4.08;;;;;;;17.67;47.81;100390.44;1634089;85;25428;-83
2021/04/12 09:39:41;;;;;;;8.80;4.58;;;;;;;17.73;47.17;100394.88;1628957;85;25911;-82
2021/04/12 09:42:28;;;;;;;8.70;3.67;;;;;;;17.76;47.04;100389.19;1632025;85;25367;-85
2021/04/12 09:45:30;;;;;;;8.25;3.30;;;;;;;17.83;46.84;100391.30;1637903;85;25870;-85
2021/04/12 09:48:44;;;;;;;7.03;3.60;;;;;;;17.92;46.75;100379.47;1638007;85;26470;-81
2021/04/12 09:51:40;;;;;;;9.05;3.95;;;;;;;18.06;46.11;100381.52;1637629;85;25805;-81
2021/04/12 09:54:58;;;;;;;6.30;3.62;;;;;;;18.16;45.74;100383.67;1611925;86;25918;-92
2021/04/12 09:58:12;;;;;;;8.45;3.27;;;;;;;18.18;45.40;100378.98;1613105;87;25445;-84
2021/04/12 10:00:48;;;;;;;13.75;5.60;;;;;;;18.18;45.43;100381.63;1612351;87;25876;-83
2021/04/12 10:03:50;;;;;;;8.13;3.70;;;;;;;18.33;45.62;100382.63;1614022;84;25372;-82
2021/04/12 10:06:47;;;;;;;6.90;3.77;;;;;;;18.51;45.38;100378.72;1669547;84;25803;-83
2021/04/12 10:09:46;;;;;;;5.25;3.37;;;;;;;18.70;44.47;100384.88;1672296;84;25718;-88
2021/04/12 10:12:43;;;;;;;11.57;4.45;;;;;;;18.80;44.44;100379.13;1668504;84;25438;-86
2021/04/12 10:15:31;;;;;;;9.00;3.90;;;;;;;18.71;43.34;100377.73;1666750;84;25351;-84
2021/04/12 10:18:22;;;;;;;10.53;4.53;;;;;;;18.68;42.19;100377.65;1668987;84;25808;-79
2021/04/12 10:20:59;;;;;;;7.65;4.35;;;;;;;18.81;43.73;100382.05;1667793;84;26172;-81
2021/04/12 10:23:31;;;;;;;7.40;4.42;;;;;;;18.93;44.10;100381.61;1666275;84;26044;-84
2021/04/12 10:26:05;;;;;;;9.83;4.25;;;;;;;19.09;42.97;100377.58;1668724;84;25933;-82
2021/04/12 10:28:37;;;;;;;9.55;4.35;;;;;;;19.14;43.48;100373.75;1668149;83;26018;-81
2021/04/12 10:31:18;;;;;;;9.28;4.03;;;;;;;19.27;43.75;100380.75;1676093;83;25736;-80
2021/04/12 10:33:58;;;;;;;8.68;4.67;;;;;;;19.41;43.77;100380.88;1686416;83;25824;-82
2021/04/12 10:36:33;;;;;;;;;;;;;;;19.47;42.53;100381.83;1690225;83;26451;-79
2021/04/12 10:39:13;;;;;;;10.85;3.65;;;;;;;19.40;42.74;100387.23;1688702;83;25334;-84
2021/04/12 10:41:47;;;;;;;8.85;4.35;;;;;;;19.29;41.80;100385.33;1685194;83;25807;-83
2021/04/12 10:44:34;;;;;;;7.30;3.98;;;;;;;19.14;41.98;100387.00;1687440;83;25867;-84
2021/04/12 10:47:23;;;;;;;8.63;4.80;;;;;;;19.07;41.90;100392.39;1665785;83;25653;-80
2021/04/12 10:50:27;;;;;;;8.33;3.95;;;;;;;19.02;42.23;100389.58;1662062;84;25996;-84
2021/04/12 10:53:42;;;;;;;9.60;4.17;;;;;;;19.04;42.36;100389.34;1659509;84;25778;-89
2021/04/12 10:56:28;;;;;;;5.85;3.80;;;;;;;19.11;42.53;100383.48;1660528;84;25352;-90
2021/04/12 10:59:43;;;;;;;7.45;4.10;;;;;;;19.27;42.75;100384.73;1662247;84;26560;-91
2021/04/12 11:02:36;;;;;;;9.40;3.80;;;;;;;19.36;41.76;100379.94;1664784;84;25398;-80
2021/04/12 11:05:13;;;;;;;6.50;3.50;;;;;;;19.40;42.35;100377.95;1659710;84;25719;-83
2021/04/12 11:07:54;;;;;;;6.03;3.40;;;;;;;19.39;42.20;100381.61;1663154;84;25299;-88
2021/04/12 11:10:49;;;;;;;13.00;4.58;;;;;;;19.39;41.66;100374.98;1661363;84;26390;-81
2021/04/12 11:13:38;;;;;;;9.53;4.65;;;;;;;19.34;41.83;100383.31;1661424;84;25338;-86
2021/04/12 11:16:26;;;;;;;8.55;3.95;;;;;;;19.22;41.23;100377.95;1658950;84;25523;-83
2021/04/12 11:19:19;;;;;;;6.80;3.72;;;;;;;19.14;42.17;100384.88;1661039;84;25792;-83
2021/04/12 11:22:13;;;;;;;10.55;4.08;;;;;;;19.15;42.11;100376.72;1659806;84;26177;-85
2021/04/12 11:25:21;;;;;;;9.35;4.15;;;;;;;19.16;42.05;100378.84;1660049;84;25724;-79
2021/04/12 11:28:16;;;;;;;8.58;4.05;;;;;;;19.16;41.80;100378.84;1661461;84;25904;-83
2021/04/12 11:31:20;;;;;;;7.78;3.87;;;;;;;19.25;42.33;100379.64;1665939;84;25349;-76
2021/04/12 11:34:02;;;;;;;8.25;3.90;;;;;;;19.25;40.41;100370.36;1662033;84;27361;-88
2021/04/12 11:36:46;;;;;;;6.17;3.95;;;;;;;19.25;41.70;100369.04;1661574;84;25331;-87
2021/04/12 11:39:32;;;;;;;8.55;3.92;;;;;;;19.36;41.76;100375.95;1661740;84;25407;-87
2021/04/12 11:42:06;;;;;;;6.28;3.92;;;;;;;19.32;39.95;100372.15;1661200;84;26316;-87
2021/04/12 11:44:45;;;;;;;12.28;3.87;;;;;;;19.07;39.44;100374.36;1665272;84;25394;-82
2021/04/12 11:47:54;;;;;;;6.22;3.70;;;;;;;19.07;40.54;100372.52;1677677;83;25657;-78
2021/04/12 11:50:39;;;;;;;11.05;4.90;;;;;;;19.18;41.60;100372.30;1684148;83;25755;-80
2021/04/12 11:53:40;;;;;;;10.30;4.00;;;;;;;19.46;41.76;100374.41;1684351;83;25693;-84
2021/04/12 11:56:27;;;;;;;7.40;3.92;;;;;;;19.53;40.92;100370.33;1685262;83;25657;-82
2021/04/12 11:59:18;;;;;;;10.60;4.33;;;;;;;19.54;41.26;100371.97;1643291;85;26020;-81
2021/04/12 12:01:58;;;;;;;12.18;4.25;;;;;;;19.59;41.34;100358.84;1642014;85;26154;-78
2021/04/12 12:04:47;;;;;;;;;;;;;;;19.66;41.68;100364.08;1646022;84;25560;-80
2021/04/12 12:07:32;;;;;;;8.05;3.75;;;;;;;19.74;41.70;100369.88;1647141;85;25390;-79
2021/04/12 12:10:15;;;;;;;8.50;3.37;;;;;;;19.69;40.41;100372.39;1650535;84;25874;-81
2021/04/12 12:12:58;;;;;;;7.05;3.70;;;;;;;19.51;40.15;100377.72;1645706;85;25411;-77
2021/04/12 12:15:52;;;;;;;10.13;4.75;;;;;;;19.32;40.61;100372.95;1646089;85;25694;-81
2021/04/12 12:18:28;;;;;;;10.15;4.72;;;;;;;19.26;41.25;100366.70;1644258;85;25901;-80
2021/04/12 12:21:15;;;;;;;9.35;4.53;;;;;;;19.24;41.27;100372.73;1648858;85;25404;-81
2021/04/12 12:24:11;;;;;;;11.03;3.60;;;;;;;19.18;41.17;100375.44;1644970;85;25379;-79
2021/04/12 12:27:02;;;;;;;8.55;3.80;;;;;;;19.11;41.23;100374.72;1647131;85;25963;-81
2021/04/12 12:29:39;;;;;;;8.18;3.80;;;;;;;19.08;41.25;100372.80;1643278;85;26018;-79
2021/04/12 12:32:19;;;;;;;8.15;4.50;;;;;;;19.06;41.91;100374.05;1643764;84;25854;-80
2021/04/12 12:35:03;;;;;;;8.60;3.90;;;;;;;19.03;41.40;100377.14;1645976;85;25586;-78
2021/04/12 12:37:56;;;;;;;47.62;7.03;;;;;;;18.92;41.45;100377.36;1684019;83;25977;-78
2021/04/12 12:40:27;;;;;;;14.13;4.72;;;;;;;18.90;41.85;100374.11;1662738;83;25460;-79
2021/04/12 12:43:03;;;;;;;13.30;3.98;;;;;;;18.89;42.05;100383.61;1687943;83;25602;-79
2021/04/12 12:45:37;;;;;;;6.87;3.40;;;;;;;18.83;41.54;100377.36;1684830;83;25815;-78
2021/04/12 12:48:13;;;;;;;9.08;3.92;;;;;;;18.78;41.84;100383.82;1673933;83;25470;-80
2021/04/12 12:50:59;;;;;;;9.63;3.75;;;;;;;18.70;41.96;100379.58;1670333;84;26802;-78
2021/04/12 12:53:34;;;;;;;6.85;3.33;;;;;;;18.63;42.13;100384.94;1664093;84;26419;-83
2021/04/12 12:56:14;;;;;;;89.55;10.45;;;;;;;18.59;41.75;100385.59;1663979;84;25793;-83
2021/04/12 12:58:58;;;;;;;16.75;4.67;;;;;;;18.54;42.15;100380.13;1664671;84;25735;-84
2021/04/12 13:01:32;;;;;;;12.13;4.67;;;;;;;18.49;42.37;100387.39;1666356;84;25692;-83
2021/04/12 13:04:21;;;;;;;13.28;3.75;;;;;;;18.44;42.45;100385.89;1668073;84;25876;-83
2021/04/12 13:06:52;;;;;;;11.03;3.87;;;;;;;18.36;42.30;100380.88;1670412;84;25821;-79
2021/04/12 13:09:30;;;;;;;9.03;4.25;;;;;;;18.28;42.68;100378.00;1671873;84;25675;-80
2021/04/12 13:12:15;;;;;;;10.23;3.42;;;;;;;18.25;42.51;100378.44;1676476;84;25873;-79
2021/04/12 13:14:45;;;;;;;9.10;3.52;;;;;;;18.23;42.81;100379.67;1674089;84;25932;-83
2021/04/12 13:17:37;;;;;;;9.33;3.83;;;;;;;18.24;42.87;100375.99;1665321;84;26449;-82
2021/04/12 13:20:14;;;;;;;11.28;4.90;;;;;;;18.26;42.87;100383.21;1662503;84;25752;-82
2021/04/12 13:22:46;;;;;;;18.37;6.17;;;;;;;18.23;42.91;100376.51;1669260;84;25792;-84